Hartland, Michigan
Current Conditions -  °F | °C
As of 9:34 PM on Tuesday 21 Oct 2014 (Local Time) from KOZW Reporting Station
Overcast Overcast  
Wind Chill:   Ceiling: 5000
Heat Index:   Visibility: 10mi
Dew Point:   Wind: 5mph
Humidity: 77%   Direction: 10°N
Pressure: 30.21"   Gusts: NA
Location:  42.66°N, 83.75°W
Report Text: KOZW 220134Z AUTO 01004KT 10SM OVC050 05/02 A3021 RMK AO2 T00520015
Loading
Personal Weather Stations






























Interactive Weather Map
Tropical Storm Tracking
New forecast layout! Learn more

10-Day Weather Forecast

Advertisements
Track Severe Weather on mobile